Bunker Hill, Indiana
Current Conditions -  °F | °C
As of 5:58 PM on Monday 24 Nov 2014 (Local Time) from KGUS Reporting Station
Overcast Overcast  
Wind Chill: 21°   Ceiling: 1900
Heat Index: 34°   Visibility: 10mi
Dew Point: 32°   Wind: 25mph
Humidity: 92%   Direction: 250°WSW
Pressure: 29.7"   Gusts: 39mph
Location:  40.66°N, 86.1°W
Report Text: KGUS 242258Z 25022G34KT 10SM BKN019 OVC028 01/00 A2970 RMK AO2A PK WND 25034/48BKN V OVC SLP064 P0000 T00101002
Loading
Personal Weather Stations






























Interactive Weather Map New forecast layout! Learn more

10-Day Weather Forecast

Advertisements
Track Severe Weather on mobile